Terminal Aerodrome Forecast
Issued by NWS Memphis, TN

Home | Current Version | Previous Version | Text Only | Print | Product List | Glossary On
Versions: 1 2 3 4 5 6 7 8 9 10 11 12 13 14 15 16 17 18 19 20 21 22 23 24 25 26 27
000
FTUS44 KMEG 230856 AAA
TAFMEM
TAF AMD
KMEM 230856Z 2309/2406 21007KT P6SM FEW250
     FM231500 24007KT P6SM FEW035 SCT250
     FM231800 22009KT P6SM SCT045 SCT250
     FM240300 20005KT P6SM VCTS SCT050CB BKN250=

USA.gov is the U.S. government's official web portal to all federal, state and local government web resources and services.